createdAt,value
2023-01-17T00:00:39.065Z,97243.63
2023-01-17T00:06:49.662Z,97236.53
2023-01-17T00:12:52.089Z,97234.56
2023-01-17T00:19:04.616Z,97235.63
2023-01-17T00:25:15.432Z,97241.56
2023-01-17T00:31:09.630Z,97245.63
2023-01-17T00:37:01.083Z,97236.56
2023-01-17T00:42:53.625Z,97240.94
2023-01-17T00:49:05.070Z,97228.81
2023-01-17T00:55:16.720Z,97222.25
2023-01-17T01:01:27.527Z,97220.47
2023-01-17T01:07:37.918Z,97224.94
2023-01-17T01:13:50.602Z,97232.63
2023-01-17T01:20:01.545Z,97240.19
2023-01-17T01:26:12.605Z,97239.22
2023-01-17T01:32:23.105Z,97226.63
2023-01-17T01:38:16.871Z,97228.63
2023-01-17T01:44:46.211Z,97233.81
2023-01-17T01:50:40.035Z,97226.13
2023-01-17T01:56:34.346Z,97227.50
2023-01-17T02:02:30.402Z,97226.34
2023-01-17T02:08:24.306Z,97218.22
2023-01-17T02:14:19.312Z,97221.66
2023-01-17T02:20:25.837Z,97215.63
2023-01-17T02:26:44.778Z,97233.81
2023-01-17T02:32:36.497Z,97223.84
2023-01-17T02:38:37.485Z,97219.41
2023-01-17T02:44:41.044Z,97212.28
2023-01-17T02:50:51.982Z,97211.22
2023-01-17T02:56:53.519Z,97212.25
2023-01-17T03:02:53.479Z,97208.59
2023-01-17T03:08:48.782Z,97205.44
2023-01-17T03:14:41.313Z,97202.78
2023-01-17T03:20:34.221Z,97195.41
2023-01-17T03:26:27.248Z,97213.94
2023-01-17T03:32:19.712Z,97220.03
2023-01-17T03:38:12.112Z,97224.78
2023-01-17T03:44:04.692Z,97219.22
2023-01-17T03:49:57.192Z,97220.38
2023-01-17T03:55:49.280Z,97222.03
2023-01-17T04:01:42.224Z,97212.75
2023-01-17T04:07:35.374Z,97225.00
2023-01-17T04:13:28.427Z,97231.50
2023-01-17T04:19:21.354Z,97243.66
2023-01-17T04:25:13.959Z,97244.84
2023-01-17T04:31:06.405Z,97235.50
2023-01-17T04:36:59.452Z,97231.31
2023-01-17T04:42:52.553Z,97224.16
2023-01-17T04:48:45.383Z,97245.72
2023-01-17T04:54:36.952Z,97239.03
2023-01-17T05:00:44.597Z,97234.38
2023-01-17T05:06:37.578Z,97237.81
2023-01-17T05:12:30.062Z,97235.13
2023-01-17T05:18:22.562Z,97239.06
2023-01-17T05:24:15.117Z,97244.28
2023-01-17T05:30:08.067Z,97236.59
2023-01-17T05:36:00.635Z,97233.50
2023-01-17T05:41:53.410Z,97242.22
2023-01-17T05:47:47.006Z,97237.69
2023-01-17T05:53:39.539Z,97233.59
2023-01-17T05:59:36.848Z,97237.00
2023-01-17T06:05:30.306Z,97260.34
2023-01-17T06:11:23.550Z,97259.66
2023-01-17T06:17:15.437Z,97260.72
2023-01-17T06:23:11.259Z,97265.56
2023-01-17T06:29:03.737Z,97271.59
2023-01-17T06:34:56.729Z,97267.88
2023-01-17T06:40:50.819Z,97283.78
2023-01-17T06:46:45.260Z,97293.53
2023-01-17T06:52:37.871Z,97298.78
2023-01-17T06:58:31.337Z,97310.59
2023-01-17T07:04:24.249Z,97329.28
2023-01-17T07:10:17.360Z,97332.78
2023-01-17T07:16:09.866Z,97343.16
2023-01-17T07:22:02.950Z,97353.41
2023-01-17T07:27:59.915Z,97349.88
2023-01-17T07:33:53.767Z,97363.22
2023-01-17T07:39:46.241Z,97351.94
2023-01-17T07:45:51.030Z,97337.69
2023-01-17T07:51:43.995Z,97355.88
2023-01-17T07:57:36.903Z,97358.25
2023-01-17T08:03:32.682Z,97382.69
2023-01-17T08:09:24.991Z,97386.50
2023-01-17T08:15:18.584Z,97392.88
2023-01-17T08:21:17.037Z,97411.00
2023-01-17T08:27:09.704Z,97401.88
2023-01-17T08:33:01.845Z,97403.81
2023-01-17T08:38:55.322Z,97418.72
2023-01-17T08:44:49.761Z,97410.84
2023-01-17T08:50:43.007Z,97418.19
2023-01-17T08:56:35.921Z,97423.91
2023-01-17T09:02:27.924Z,97416.63
2023-01-17T09:08:20.197Z,97417.94
2023-01-17T09:14:13.559Z,97423.91
2023-01-17T09:20:06.606Z,97422.09
2023-01-17T09:26:00.274Z,97428.03
2023-01-17T09:31:53.177Z,97426.09
2023-01-17T09:37:49.812Z,97426.28
2023-01-17T09:43:49.278Z,97422.38
2023-01-17T09:49:47.308Z,97425.50
2023-01-17T09:56:04.128Z,97426.28
2023-01-17T10:02:09.078Z,97430.78
2023-01-17T10:08:16.941Z,97430.56
2023-01-17T10:14:14.976Z,97421.06
2023-01-17T10:20:34.410Z,97436.19
2023-01-17T10:26:27.962Z,97424.75
2023-01-17T10:32:24.431Z,97432.16
2023-01-17T10:38:18.563Z,97438.34
2023-01-17T10:44:39.899Z,97440.81
2023-01-17T10:50:42.670Z,97461.03
2023-01-17T10:56:38.928Z,97471.22
2023-01-17T11:02:36.863Z,97463.75
2023-01-17T11:08:28.849Z,97451.38
2023-01-17T11:14:25.921Z,97457.59
2023-01-17T11:20:51.150Z,97443.88
2023-01-17T11:26:49.657Z,97449.72
2023-01-17T11:33:01.276Z,97449.75
2023-01-17T11:39:21.588Z,97446.50
2023-01-17T11:45:26.696Z,97441.88
2023-01-17T11:51:22.464Z,97446.19
2023-01-17T11:57:29.032Z,97437.44
2023-01-17T12:03:39.977Z,97447.22
2023-01-17T12:09:39.678Z,97446.63
2023-01-17T12:15:48.891Z,97447.44
2023-01-17T12:21:49.536Z,97438.03
2023-01-17T12:28:15.100Z,97440.59
2023-01-17T12:34:32.639Z,97435.84
2023-01-17T12:40:33.461Z,97435.38
2023-01-17T12:46:31.599Z,97445.50
2023-01-17T12:52:53.484Z,97428.03
2023-01-17T12:58:51.482Z,97433.16
2023-01-17T13:04:58.687Z,97436.63
2023-01-17T13:10:52.263Z,97457.50
2023-01-17T13:16:58.035Z,97464.50
2023-01-17T13:22:51.822Z,97476.22
2023-01-17T13:29:11.571Z,97507.94
2023-01-17T13:35:12.922Z,97504.41
2023-01-17T13:41:15.549Z,97516.03
2023-01-17T13:47:27.786Z,97537.22
2023-01-17T13:53:31.648Z,97530.19
2023-01-17T13:59:28.436Z,97527.50
2023-01-17T14:05:38.744Z,97546.94
2023-01-17T14:11:49.926Z,97563.22
2023-01-17T14:17:52.436Z,97588.13
2023-01-17T14:23:52.785Z,97612.19
2023-01-17T14:29:51.004Z,97640.88
2023-01-17T14:35:58.430Z,97648.03
2023-01-17T14:41:52.222Z,97657.16
2023-01-17T14:47:46.235Z,97650.59
2023-01-17T14:53:38.412Z,97649.94
2023-01-17T14:59:30.954Z,97655.41
2023-01-17T15:05:27.049Z,97664.63
2023-01-17T15:11:27.767Z,97662.78
2023-01-17T15:17:24.606Z,97664.69
2023-01-17T15:23:22.078Z,97663.03
2023-01-17T15:29:32.168Z,97652.28
2023-01-17T15:35:25.588Z,97649.50
2023-01-17T15:41:23.098Z,97655.78
2023-01-17T15:47:38.887Z,97652.41
2023-01-17T15:53:35.001Z,97660.44
2023-01-17T15:59:38.971Z,97652.97
2023-01-17T16:05:34.609Z,97652.63
2023-01-17T16:11:27.179Z,97651.84
2023-01-17T16:17:21.586Z,97636.56
2023-01-17T16:23:15.309Z,97637.59
2023-01-17T16:29:11.432Z,97630.59
2023-01-17T16:35:07.730Z,97627.63
2023-01-17T16:41:05.028Z,97623.28
2023-01-17T16:47:01.569Z,97614.50
2023-01-17T16:52:56.458Z,97621.28
2023-01-17T16:58:51.868Z,97621.09
2023-01-17T17:04:44.363Z,97630.50
2023-01-17T17:10:37.390Z,97640.09
2023-01-17T17:16:30.898Z,97641.34
2023-01-17T17:22:23.048Z,97623.28
2023-01-17T17:28:15.588Z,97622.94
2023-01-17T17:34:11.789Z,97645.22
2023-01-17T17:40:05.632Z,97655.97
2023-01-17T17:45:58.485Z,97662.56
2023-01-17T17:51:51.728Z,97650.41
2023-01-17T17:57:44.256Z,97639.78
2023-01-17T18:03:36.396Z,97652.91
2023-01-17T18:09:28.424Z,97679.00
2023-01-17T18:15:21.996Z,97683.59
2023-01-17T18:21:17.052Z,97683.38
2023-01-17T18:27:10.752Z,97684.22
2023-01-17T18:33:03.681Z,97692.31
2023-01-17T18:38:57.966Z,97697.94
2023-01-17T18:44:52.751Z,97703.72
2023-01-17T18:50:58.089Z,97706.19
2023-01-17T18:56:52.469Z,97715.59
2023-01-17T19:02:49.216Z,97714.25
2023-01-17T19:08:42.483Z,97707.28
2023-01-17T19:14:34.646Z,97736.47
2023-01-17T19:20:27.254Z,97743.56
2023-01-17T19:26:24.332Z,97677.50
2023-01-17T19:32:18.956Z,97701.16
2023-01-17T19:38:11.847Z,97711.88
2023-01-17T19:44:07.678Z,97713.69
2023-01-17T19:50:00.928Z,97711.63
2023-01-17T19:55:53.626Z,97686.63
2023-01-17T20:01:46.125Z,97691.13
2023-01-17T20:07:38.770Z,97688.97
2023-01-17T20:13:31.879Z,97690.28
2023-01-17T20:19:24.591Z,97707.31
2023-01-17T20:25:16.422Z,97705.78
2023-01-17T20:31:15.113Z,97710.34
2023-01-17T20:37:08.798Z,97708.47
2023-01-17T20:43:00.638Z,97698.59
2023-01-17T20:48:55.355Z,97716.28
2023-01-17T20:54:49.062Z,97703.03
2023-01-17T21:00:42.497Z,97708.88
2023-01-17T21:06:34.807Z,97706.94
2023-01-17T21:12:26.897Z,97695.97
2023-01-17T21:18:22.620Z,97693.03
2023-01-17T21:24:19.599Z,97680.53
2023-01-17T21:30:12.051Z,97681.00
2023-01-17T21:36:08.116Z,97657.88
2023-01-17T21:42:00.542Z,97657.28
2023-01-17T21:47:53.322Z,97686.53
2023-01-17T21:53:46.161Z,97691.56
2023-01-17T21:59:38.768Z,97686.25
2023-01-17T22:05:30.983Z,97685.25
2023-01-17T22:11:26.287Z,97662.88
2023-01-17T22:17:18.997Z,97658.91
2023-01-17T22:23:12.185Z,97675.66
2023-01-17T22:29:05.475Z,97681.56
2023-01-17T22:34:57.886Z,97675.44
2023-01-17T22:40:50.099Z,97666.03
2023-01-17T22:46:42.739Z,97663.91
2023-01-17T22:52:35.974Z,97653.06
2023-01-17T22:58:28.980Z,97656.69
2023-01-17T23:04:22.123Z,97640.63
2023-01-17T23:10:34.529Z,97618.69
2023-01-17T23:16:45.758Z,97619.56
2023-01-17T23:22:38.509Z,97639.03
2023-01-17T23:28:31.290Z,97643.72
2023-01-17T23:34:25.484Z,97627.78
2023-01-17T23:40:18.709Z,97641.13
2023-01-17T23:46:12.441Z,97606.13
2023-01-17T23:52:06.337Z,97607.31
2023-01-17T23:58:00.258Z,97606.78
